sensor_id;sensor_type;location;lat;lon;timestamp;temperature;humidity
34985;DHT22;21190;58.750;17.004;2023-02-15T00:00:05;3.30;99.90
34985;DHT22;21190;58.750;17.004;2023-02-15T00:02:33;3.30;99.90
34985;DHT22;21190;58.750;17.004;2023-02-15T00:05:00;3.30;99.90
34985;DHT22;21190;58.750;17.004;2023-02-15T00:07:27;3.30;99.90
34985;DHT22;21190;58.750;17.004;2023-02-15T00:09:54;3.30;99.90
34985;DHT22;21190;58.750;17.004;2023-02-15T00:12:21;3.40;99.90
34985;DHT22;21190;58.750;17.004;2023-02-15T00:14:48;3.40;99.90
34985;DHT22;21190;58.750;17.004;2023-02-15T00:17:15;3.30;99.90
34985;DHT22;21190;58.750;17.004;2023-02-15T00:19:42;3.30;99.90
34985;DHT22;21190;58.750;17.004;2023-02-15T00:22:09;3.20;99.90
34985;DHT22;21190;58.750;17.004;2023-02-15T00:24:36;3.20;99.90
34985;DHT22;21190;58.750;17.004;2023-02-15T00:27:03;3.30;99.90
34985;DHT22;21190;58.750;17.004;2023-02-15T00:29:30;3.30;99.90
34985;DHT22;21190;58.750;17.004;2023-02-15T00:31:58;3.30;99.90
34985;DHT22;21190;58.750;17.004;2023-02-15T00:34:26;3.20;99.90
34985;DHT22;21190;58.750;17.004;2023-02-15T00:36:54;3.20;99.90
34985;DHT22;21190;58.750;17.004;2023-02-15T00:39:21;3.30;99.90
34985;DHT22;21190;58.750;17.004;2023-02-15T00:41:48;3.30;99.90
34985;DHT22;21190;58.750;17.004;2023-02-15T00:44:15;3.20;99.90
34985;DHT22;21190;58.750;17.004;2023-02-15T00:46:42;3.30;99.90
34985;DHT22;21190;58.750;17.004;2023-02-15T00:49:10;3.30;99.90
34985;DHT22;21190;58.750;17.004;2023-02-15T00:51:37;3.30;99.90
34985;DHT22;21190;58.750;17.004;2023-02-15T00:54:05;3.30;99.90
34985;DHT22;21190;58.750;17.004;2023-02-15T00:56:32;3.20;99.90
34985;DHT22;21190;58.750;17.004;2023-02-15T00:58:59;3.30;99.90
34985;DHT22;21190;58.750;17.004;2023-02-15T01:01:26;3.30;99.90
34985;DHT22;21190;58.750;17.004;2023-02-15T01:03:53;3.30;99.90
34985;DHT22;21190;58.750;17.004;2023-02-15T01:06:20;3.30;99.90
34985;DHT22;21190;58.750;17.004;2023-02-15T01:08:47;3.30;99.90
34985;DHT22;21190;58.750;17.004;2023-02-15T01:11:17;3.30;99.90
34985;DHT22;21190;58.750;17.004;2023-02-15T01:13:54;3.20;99.90
34985;DHT22;21190;58.750;17.004;2023-02-15T01:16:22;3.20;99.90
34985;DHT22;21190;58.750;17.004;2023-02-15T01:18:50;3.20;99.90
34985;DHT22;21190;58.750;17.004;2023-02-15T01:21:19;3.20;99.90
34985;DHT22;21190;58.750;17.004;2023-02-15T01:23:47;3.30;99.90
34985;DHT22;21190;58.750;17.004;2023-02-15T01:26:14;3.30;99.90
34985;DHT22;21190;58.750;17.004;2023-02-15T01:28:42;3.40;99.90
34985;DHT22;21190;58.750;17.004;2023-02-15T01:31:11;3.30;99.90
34985;DHT22;21190;58.750;17.004;2023-02-15T01:33:39;3.30;99.90
34985;DHT22;21190;58.750;17.004;2023-02-15T01:36:06;3.40;99.90
34985;DHT22;21190;58.750;17.004;2023-02-15T01:38:34;3.30;99.90
34985;DHT22;21190;58.750;17.004;2023-02-15T01:41:02;3.30;99.90
34985;DHT22;21190;58.750;17.004;2023-02-15T01:44:01;3.30;99.90
34985;DHT22;21190;58.750;17.004;2023-02-15T01:46:35;3.30;99.90
34985;DHT22;21190;58.750;17.004;2023-02-15T01:49:10;3.30;99.90
34985;DHT22;21190;58.750;17.004;2023-02-15T01:51:39;3.30;99.90
34985;DHT22;21190;58.750;17.004;2023-02-15T01:54:12;3.30;99.90
34985;DHT22;21190;58.750;17.004;2023-02-15T01:56:42;3.30;99.90
34985;DHT22;21190;58.750;17.004;2023-02-15T01:59:13;3.30;99.90
34985;DHT22;21190;58.750;17.004;2023-02-15T02:01:42;3.30;99.90
34985;DHT22;21190;58.750;17.004;2023-02-15T02:04:17;3.30;99.90
34985;DHT22;21190;58.750;17.004;2023-02-15T02:06:49;3.30;99.90
34985;DHT22;21190;58.750;17.004;2023-02-15T02:09:17;3.30;99.90
34985;DHT22;21190;58.750;17.004;2023-02-15T02:11:46;3.30;99.90
34985;DHT22;21190;58.750;17.004;2023-02-15T02:14:15;3.40;99.90
34985;DHT22;21190;58.750;17.004;2023-02-15T02:28:21;3.40;99.90
34985;DHT22;21190;58.750;17.004;2023-02-15T02:31:14;3.30;99.90
34985;DHT22;21190;58.750;17.004;2023-02-15T02:34:14;3.30;99.90
34985;DHT22;21190;58.750;17.004;2023-02-15T02:42:41;3.40;99.90
34985;DHT22;21190;58.750;17.004;2023-02-15T02:50:27;3.50;99.90
34985;DHT22;21190;58.750;17.004;2023-02-15T02:52:57;3.50;99.90
34985;DHT22;21190;58.750;17.004;2023-02-15T03:00:36;3.50;99.90
34985;DHT22;21190;58.750;17.004;2023-02-15T03:03:25;3.50;99.90
34985;DHT22;21190;58.750;17.004;2023-02-15T03:05:58;3.40;99.90
34985;DHT22;21190;58.750;17.004;2023-02-15T03:08:35;3.40;99.90
34985;DHT22;21190;58.750;17.004;2023-02-15T03:11:04;3.30;99.90
34985;DHT22;21190;58.750;17.004;2023-02-15T03:13:32;3.30;99.90
34985;DHT22;21190;58.750;17.004;2023-02-15T03:16:00;3.30;99.90
34985;DHT22;21190;58.750;17.004;2023-02-15T03:18:51;3.30;99.90
34985;DHT22;21190;58.750;17.004;2023-02-15T03:21:22;3.40;99.90
34985;DHT22;21190;58.750;17.004;2023-02-15T03:23:59;3.40;99.90
34985;DHT22;21190;58.750;17.004;2023-02-15T03:26:28;3.40;99.90
34985;DHT22;21190;58.750;17.004;2023-02-15T03:28:57;3.40;99.90
34985;DHT22;21190;58.750;17.004;2023-02-15T03:31:28;3.40;99.90
34985;DHT22;21190;58.750;17.004;2023-02-15T03:34:00;3.40;99.90
34985;DHT22;21190;58.750;17.004;2023-02-15T03:36:44;3.30;99.90
34985;DHT22;21190;58.750;17.004;2023-02-15T03:40:02;3.30;99.90
34985;DHT22;21190;58.750;17.004;2023-02-15T03:42:29;3.30;99.90
34985;DHT22;21190;58.750;17.004;2023-02-15T03:45:08;3.30;99.90
34985;DHT22;21190;58.750;17.004;2023-02-15T03:47:39;3.40;99.90
34985;DHT22;21190;58.750;17.004;2023-02-15T03:53:02;3.30;99.90
34985;DHT22;21190;58.750;17.004;2023-02-15T03:55:30;3.30;99.90
34985;DHT22;21190;58.750;17.004;2023-02-15T03:57:57;3.40;99.90
34985;DHT22;21190;58.750;17.004;2023-02-15T04:00:49;3.40;99.90
34985;DHT22;21190;58.750;17.004;2023-02-15T04:03:41;3.30;99.90
34985;DHT22;21190;58.750;17.004;2023-02-15T04:06:09;3.40;99.90
34985;DHT22;21190;58.750;17.004;2023-02-15T04:08:36;3.40;99.90
34985;DHT22;21190;58.750;17.004;2023-02-15T04:11:22;3.30;99.90
34985;DHT22;21190;58.750;17.004;2023-02-15T04:13:49;3.30;99.90
34985;DHT22;21190;58.750;17.004;2023-02-15T04:16:24;3.30;99.90
34985;DHT22;21190;58.750;17.004;2023-02-15T04:18:51;3.40;99.90
34985;DHT22;21190;58.750;17.004;2023-02-15T04:21:36;3.30;99.90
34985;DHT22;21190;58.750;17.004;2023-02-15T04:24:22;3.30;99.90
34985;DHT22;21190;58.750;17.004;2023-02-15T04:27:07;3.20;99.90
34985;DHT22;21190;58.750;17.004;2023-02-15T04:29:34;3.20;99.90
34985;DHT22;21190;58.750;17.004;2023-02-15T04:32:01;3.20;99.90
34985;DHT22;21190;58.750;17.004;2023-02-15T04:34:29;3.30;99.90
34985;DHT22;21190;58.750;17.004;2023-02-15T04:36:56;3.20;99.90
34985;DHT22;21190;58.750;17.004;2023-02-15T04:39:23;3.20;99.90
34985;DHT22;21190;58.750;17.004;2023-02-15T04:41:50;3.20;99.90
34985;DHT22;21190;58.750;17.004;2023-02-15T04:44:17;3.20;99.90
34985;DHT22;21190;58.750;17.004;2023-02-15T04:46:44;3.30;99.90
34985;DHT22;21190;58.750;17.004;2023-02-15T04:49:11;3.20;99.90
34985;DHT22;21190;58.750;17.004;2023-02-15T04:51:38;3.10;99.90
34985;DHT22;21190;58.750;17.004;2023-02-15T04:54:05;3.10;99.90
34985;DHT22;21190;58.750;17.004;2023-02-15T04:56:32;3.10;99.90
34985;DHT22;21190;58.750;17.004;2023-02-15T04:59:01;3.20;99.90
34985;DHT22;21190;58.750;17.004;2023-02-15T05:01:28;3.10;99.90
34985;DHT22;21190;58.750;17.004;2023-02-15T05:03:55;3.10;99.90
34985;DHT22;21190;58.750;17.004;2023-02-15T05:06:23;3.10;99.90
34985;DHT22;21190;58.750;17.004;2023-02-15T05:08:50;3.10;99.90
34985;DHT22;21190;58.750;17.004;2023-02-15T05:11:17;3.20;99.90
34985;DHT22;21190;58.750;17.004;2023-02-15T05:13:44;3.10;99.90
34985;DHT22;21190;58.750;17.004;2023-02-15T05:16:11;3.10;99.90
34985;DHT22;21190;58.750;17.004;2023-02-15T05:18:38;3.10;99.90
34985;DHT22;21190;58.750;17.004;2023-02-15T05:21:05;3.10;99.90
34985;DHT22;21190;58.750;17.004;2023-02-15T05:23:32;3.10;99.90
34985;DHT22;21190;58.750;17.004;2023-02-15T05:25:59;3.10;99.90
34985;DHT22;21190;58.750;17.004;2023-02-15T05:28:45;3.10;99.90
34985;DHT22;21190;58.750;17.004;2023-02-15T05:31:17;3.10;99.90
34985;DHT22;21190;58.750;17.004;2023-02-15T05:33:45;3.10;99.90
34985;DHT22;21190;58.750;17.004;2023-02-15T05:36:12;3.10;99.90
34985;DHT22;21190;58.750;17.004;2023-02-15T05:38:39;3.10;99.90
34985;DHT22;21190;58.750;17.004;2023-02-15T05:41:07;3.10;99.90
34985;DHT22;21190;58.750;17.004;2023-02-15T05:43:35;3.20;99.90
34985;DHT22;21190;58.750;17.004;2023-02-15T05:46:02;3.10;99.90
34985;DHT22;21190;58.750;17.004;2023-02-15T05:48:31;3.10;99.90
34985;DHT22;21190;58.750;17.004;2023-02-15T05:50:59;3.10;99.90
34985;DHT22;21190;58.750;17.004;2023-02-15T05:53:28;3.10;99.90
34985;DHT22;21190;58.750;17.004;2023-02-15T05:55:55;3.10;99.90
34985;DHT22;21190;58.750;17.004;2023-02-15T05:58:27;3.20;99.90
34985;DHT22;21190;58.750;17.004;2023-02-15T06:00:54;3.10;99.90
34985;DHT22;21190;58.750;17.004;2023-02-15T06:03:23;3.10;99.90
34985;DHT22;21190;58.750;17.004;2023-02-15T06:05:50;3.10;99.90
34985;DHT22;21190;58.750;17.004;2023-02-15T06:08:17;3.10;99.90
34985;DHT22;21190;58.750;17.004;2023-02-15T06:10:47;3.10;99.90
34985;DHT22;21190;58.750;17.004;2023-02-15T06:13:14;3.10;99.90
34985;DHT22;21190;58.750;17.004;2023-02-15T06:15:41;3.10;99.90
34985;DHT22;21190;58.750;17.004;2023-02-15T06:18:08;3.10;99.90
34985;DHT22;21190;58.750;17.004;2023-02-15T06:20:35;3.10;99.90
34985;DHT22;21190;58.750;17.004;2023-02-15T06:23:02;3.00;99.90
34985;DHT22;21190;58.750;17.004;2023-02-15T06:25:29;3.00;99.90
34985;DHT22;21190;58.750;17.004;2023-02-15T06:27:56;3.10;99.90
34985;DHT22;21190;58.750;17.004;2023-02-15T06:30:23;3.10;99.90
34985;DHT22;21190;58.750;17.004;2023-02-15T06:32:50;3.10;99.90
34985;DHT22;21190;58.750;17.004;2023-02-15T06:35:17;3.00;99.90
34985;DHT22;21190;58.750;17.004;2023-02-15T06:37:47;3.00;99.90
34985;DHT22;21190;58.750;17.004;2023-02-15T06:40:15;3.00;99.90
34985;DHT22;21190;58.750;17.004;2023-02-15T06:42:42;3.10;99.90
34985;DHT22;21190;58.750;17.004;2023-02-15T06:45:10;3.00;99.90
34985;DHT22;21190;58.750;17.004;2023-02-15T06:47:37;3.10;99.90
34985;DHT22;21190;58.750;17.004;2023-02-15T06:50:05;3.00;99.90
34985;DHT22;21190;58.750;17.004;2023-02-15T06:52:33;3.00;99.90
34985;DHT22;21190;58.750;17.004;2023-02-15T06:55:00;3.00;99.90
34985;DHT22;21190;58.750;17.004;2023-02-15T06:57:27;3.00;99.90
34985;DHT22;21190;58.750;17.004;2023-02-15T06:59:54;3.00;99.90
34985;DHT22;21190;58.750;17.004;2023-02-15T07:02:21;3.00;99.90
34985;DHT22;21190;58.750;17.004;2023-02-15T07:04:48;3.00;99.90
34985;DHT22;21190;58.750;17.004;2023-02-15T07:07:15;3.10;99.90
34985;DHT22;21190;58.750;17.004;2023-02-15T07:09:42;3.00;99.90
34985;DHT22;21190;58.750;17.004;2023-02-15T07:12:09;3.00;99.90
34985;DHT22;21190;58.750;17.004;2023-02-15T07:14:54;3.00;99.90
34985;DHT22;21190;58.750;17.004;2023-02-15T07:17:21;3.10;99.90
34985;DHT22;21190;58.750;17.004;2023-02-15T07:20:13;3.10;99.90
34985;DHT22;21190;58.750;17.004;2023-02-15T07:22:41;3.00;99.90
34985;DHT22;21190;58.750;17.004;2023-02-15T07:25:10;2.90;99.90
34985;DHT22;21190;58.750;17.004;2023-02-15T07:27:37;2.90;99.90
34985;DHT22;21190;58.750;17.004;2023-02-15T07:30:05;3.00;99.90
34985;DHT22;21190;58.750;17.004;2023-02-15T07:32:33;2.90;99.90
34985;DHT22;21190;58.750;17.004;2023-02-15T07:35:00;2.90;99.90
34985;DHT22;21190;58.750;17.004;2023-02-15T07:37:28;3.00;99.90
34985;DHT22;21190;58.750;17.004;2023-02-15T07:39:55;3.00;99.90
34985;DHT22;21190;58.750;17.004;2023-02-15T07:42:22;3.00;99.90
34985;DHT22;21190;58.750;17.004;2023-02-15T07:44:49;3.00;99.90
34985;DHT22;21190;58.750;17.004;2023-02-15T07:47:16;3.00;99.90
34985;DHT22;21190;58.750;17.004;2023-02-15T07:49:44;3.00;99.90
34985;DHT22;21190;58.750;17.004;2023-02-15T07:52:11;2.90;99.90
34985;DHT22;21190;58.750;17.004;2023-02-15T07:54:38;3.00;99.90
34985;DHT22;21190;58.750;17.004;2023-02-15T07:57:05;3.00;99.90
34985;DHT22;21190;58.750;17.004;2023-02-15T07:59:32;3.00;99.90
34985;DHT22;21190;58.750;17.004;2023-02-15T08:01:59;3.00;99.90
34985;DHT22;21190;58.750;17.004;2023-02-15T08:04:26;3.00;99.90
34985;DHT22;21190;58.750;17.004;2023-02-15T08:06:54;3.10;99.90
34985;DHT22;21190;58.750;17.004;2023-02-15T08:09:21;3.00;99.90
34985;DHT22;21190;58.750;17.004;2023-02-15T08:11:49;3.00;99.90
34985;DHT22;21190;58.750;17.004;2023-02-15T08:14:18;3.00;99.90
34985;DHT22;21190;58.750;17.004;2023-02-15T08:16:48;3.00;99.90
34985;DHT22;21190;58.750;17.004;2023-02-15T08:19:20;3.00;99.90
34985;DHT22;21190;58.750;17.004;2023-02-15T08:21:54;3.00;99.90
34985;DHT22;21190;58.750;17.004;2023-02-15T08:24:23;3.00;99.90
34985;DHT22;21190;58.750;17.004;2023-02-15T08:26:51;2.90;99.90
34985;DHT22;21190;58.750;17.004;2023-02-15T08:29:23;2.90;99.90
34985;DHT22;21190;58.750;17.004;2023-02-15T08:31:56;2.90;99.90
34985;DHT22;21190;58.750;17.004;2023-02-15T08:34:34;2.90;99.90
34985;DHT22;21190;58.750;17.004;2023-02-15T08:37:01;2.90;99.90
34985;DHT22;21190;58.750;17.004;2023-02-15T08:39:28;2.90;99.90
34985;DHT22;21190;58.750;17.004;2023-02-15T08:41:55;2.90;99.90
34985;DHT22;21190;58.750;17.004;2023-02-15T08:44:22;2.80;99.90
34985;DHT22;21190;58.750;17.004;2023-02-15T08:46:50;2.80;99.90
34985;DHT22;21190;58.750;17.004;2023-02-15T08:49:19;2.90;99.90
34985;DHT22;21190;58.750;17.004;2023-02-15T08:51:48;2.80;99.90
34985;DHT22;21190;58.750;17.004;2023-02-15T08:54:17;2.80;99.90
34985;DHT22;21190;58.750;17.004;2023-02-15T08:56:45;2.90;99.90
34985;DHT22;21190;58.750;17.004;2023-02-15T08:59:15;2.90;99.90
34985;DHT22;21190;58.750;17.004;2023-02-15T09:01:43;2.90;99.90
34985;DHT22;21190;58.750;17.004;2023-02-15T09:04:11;2.90;99.90
34985;DHT22;21190;58.750;17.004;2023-02-15T09:06:40;3.00;99.90
34985;DHT22;21190;58.750;17.004;2023-02-15T09:09:08;3.00;99.90
34985;DHT22;21190;58.750;17.004;2023-02-15T09:11:40;3.00;99.90
34985;DHT22;21190;58.750;17.004;2023-02-15T09:14:11;3.00;99.90
34985;DHT22;21190;58.750;17.004;2023-02-15T09:16:41;3.00;99.90
34985;DHT22;21190;58.750;17.004;2023-02-15T09:19:09;3.00;99.90
34985;DHT22;21190;58.750;17.004;2023-02-15T09:21:37;3.00;99.90
34985;DHT22;21190;58.750;17.004;2023-02-15T09:24:10;2.90;99.90
34985;DHT22;21190;58.750;17.004;2023-02-15T09:26:41;2.90;99.90
34985;DHT22;21190;58.750;17.004;2023-02-15T09:29:10;2.90;99.90
34985;DHT22;21190;58.750;17.004;2023-02-15T09:31:40;2.90;99.90
34985;DHT22;21190;58.750;17.004;2023-02-15T09:34:08;2.80;99.90
34985;DHT22;21190;58.750;17.004;2023-02-15T09:36:37;2.80;99.90
34985;DHT22;21190;58.750;17.004;2023-02-15T09:57:50;2.90;99.90
34985;DHT22;21190;58.750;17.004;2023-02-15T10:08:32;2.90;99.90
34985;DHT22;21190;58.750;17.004;2023-02-15T10:11:15;2.90;99.90
34985;DHT22;21190;58.750;17.004;2023-02-15T10:14:26;2.80;99.90
34985;DHT22;21190;58.750;17.004;2023-02-15T10:28:04;2.90;99.90
34985;DHT22;21190;58.750;17.004;2023-02-15T10:30:41;2.90;99.90
34985;DHT22;21190;58.750;17.004;2023-02-15T10:33:31;2.80;99.90
34985;DHT22;21190;58.750;17.004;2023-02-15T10:36:18;2.80;99.90
34985;DHT22;21190;58.750;17.004;2023-02-15T10:39:06;2.80;99.90
34985;DHT22;21190;58.750;17.004;2023-02-15T10:41:59;2.80;99.90
34985;DHT22;21190;58.750;17.004;2023-02-15T10:55:44;2.70;99.90
34985;DHT22;21190;58.750;17.004;2023-02-15T11:01:01;2.80;99.90
34985;DHT22;21190;58.750;17.004;2023-02-15T11:06:21;2.80;99.90
34985;DHT22;21190;58.750;17.004;2023-02-15T11:08:57;2.90;99.90
34985;DHT22;21190;58.750;17.004;2023-02-15T11:11:31;2.90;99.90
34985;DHT22;21190;58.750;17.004;2023-02-15T11:14:02;2.90;99.90
34985;DHT22;21190;58.750;17.004;2023-02-15T11:16:37;2.90;99.90
34985;DHT22;21190;58.750;17.004;2023-02-15T11:19:24;3.00;99.90
34985;DHT22;21190;58.750;17.004;2023-02-15T11:21:59;3.00;99.90
34985;DHT22;21190;58.750;17.004;2023-02-15T11:24:29;3.00;99.90
34985;DHT22;21190;58.750;17.004;2023-02-15T11:27:14;3.00;99.90
34985;DHT22;21190;58.750;17.004;2023-02-15T11:30:04;3.00;99.90
34985;DHT22;21190;58.750;17.004;2023-02-15T11:32:43;3.00;99.90
34985;DHT22;21190;58.750;17.004;2023-02-15T11:37:48;3.00;99.90
34985;DHT22;21190;58.750;17.004;2023-02-15T11:42:47;2.90;99.90
34985;DHT22;21190;58.750;17.004;2023-02-15T11:45:21;2.90;99.90
34985;DHT22;21190;58.750;17.004;2023-02-15T11:47:50;3.00;99.90
34985;DHT22;21190;58.750;17.004;2023-02-15T11:50:22;3.00;99.90
34985;DHT22;21190;58.750;17.004;2023-02-15T11:52:52;3.10;99.90
34985;DHT22;21190;58.750;17.004;2023-02-15T11:55:22;3.00;99.90
34985;DHT22;21190;58.750;17.004;2023-02-15T11:58:02;3.00;99.90
34985;DHT22;21190;58.750;17.004;2023-02-15T12:00:43;3.00;99.90
34985;DHT22;21190;58.750;17.004;2023-02-15T12:06:27;2.90;99.90
34985;DHT22;21190;58.750;17.004;2023-02-15T12:11:36;3.00;99.90
34985;DHT22;21190;58.750;17.004;2023-02-15T12:14:09;3.00;99.90
34985;DHT22;21190;58.750;17.004;2023-02-15T12:16:45;2.90;99.90
34985;DHT22;21190;58.750;17.004;2023-02-15T12:19:27;2.80;99.90
34985;DHT22;21190;58.750;17.004;2023-02-15T12:21:56;2.70;99.90
34985;DHT22;21190;58.750;17.004;2023-02-15T12:24:34;2.70;99.90
34985;DHT22;21190;58.750;17.004;2023-02-15T12:27:06;2.70;99.90
34985;DHT22;21190;58.750;17.004;2023-02-15T12:29:42;2.70;99.90
34985;DHT22;21190;58.750;17.004;2023-02-15T12:32:33;2.60;99.90
34985;DHT22;21190;58.750;17.004;2023-02-15T12:35:13;2.60;99.90
34985;DHT22;21190;58.750;17.004;2023-02-15T12:37:55;2.70;99.90
34985;DHT22;21190;58.750;17.004;2023-02-15T12:40:29;2.70;99.90
34985;DHT22;21190;58.750;17.004;2023-02-15T12:42:57;2.60;99.90
34985;DHT22;21190;58.750;17.004;2023-02-15T12:45:33;2.60;99.90
34985;DHT22;21190;58.750;17.004;2023-02-15T12:50:40;2.60;99.90
34985;DHT22;21190;58.750;17.004;2023-02-15T12:55:53;2.70;99.90
34985;DHT22;21190;58.750;17.004;2023-02-15T12:58:23;2.70;99.90
34985;DHT22;21190;58.750;17.004;2023-02-15T13:01:13;2.80;99.90
34985;DHT22;21190;58.750;17.004;2023-02-15T13:04:00;2.60;99.90
34985;DHT22;21190;58.750;17.004;2023-02-15T13:06:31;2.70;99.90
34985;DHT22;21190;58.750;17.004;2023-02-15T13:09:14;2.60;99.90
34985;DHT22;21190;58.750;17.004;2023-02-15T13:11:43;2.70;99.90
34985;DHT22;21190;58.750;17.004;2023-02-15T13:14:18;2.60;99.90
34985;DHT22;21190;58.750;17.004;2023-02-15T13:16:49;2.60;99.90
34985;DHT22;21190;58.750;17.004;2023-02-15T13:19:21;2.60;99.90
34985;DHT22;21190;58.750;17.004;2023-02-15T13:21:52;2.50;99.90
34985;DHT22;21190;58.750;17.004;2023-02-15T13:24:24;2.40;99.90
34985;DHT22;21190;58.750;17.004;2023-02-15T13:26:56;2.50;99.90
34985;DHT22;21190;58.750;17.004;2023-02-15T13:29:43;2.50;99.90
34985;DHT22;21190;58.750;17.004;2023-02-15T13:32:31;2.50;99.90
34985;DHT22;21190;58.750;17.004;2023-02-15T13:35:01;2.50;99.90
34985;DHT22;21190;58.750;17.004;2023-02-15T13:37:45;2.50;99.90
34985;DHT22;21190;58.750;17.004;2023-02-15T13:42:54;2.50;99.90
34985;DHT22;21190;58.750;17.004;2023-02-15T13:45:35;2.50;99.90
34985;DHT22;21190;58.750;17.004;2023-02-15T13:48:13;2.60;99.90
34985;DHT22;21190;58.750;17.004;2023-02-15T13:51:07;2.50;99.90
34985;DHT22;21190;58.750;17.004;2023-02-15T13:59:21;2.40;99.90
34985;DHT22;21190;58.750;17.004;2023-02-15T14:02:01;2.40;99.90
34985;DHT22;21190;58.750;17.004;2023-02-15T14:10:21;2.60;99.90
34985;DHT22;21190;58.750;17.004;2023-02-15T14:13:01;2.70;99.90
34985;DHT22;21190;58.750;17.004;2023-02-15T14:18:35;2.60;99.90
34985;DHT22;21190;58.750;17.004;2023-02-15T14:32:13;2.40;99.90
34985;DHT22;21190;58.750;17.004;2023-02-15T14:34:50;2.50;99.90
34985;DHT22;21190;58.750;17.004;2023-02-15T14:37:29;2.40;99.90
34985;DHT22;21190;58.750;17.004;2023-02-15T14:46:12;2.20;99.90
34985;DHT22;21190;58.750;17.004;2023-02-15T14:48:58;2.20;99.90
34985;DHT22;21190;58.750;17.004;2023-02-15T14:54:52;2.30;99.90
34985;DHT22;21190;58.750;17.004;2023-02-15T15:04:45;2.20;99.90
34985;DHT22;21190;58.750;17.004;2023-02-15T15:07:22;2.20;99.90
34985;DHT22;21190;58.750;17.004;2023-02-15T15:12:49;2.30;99.90
34985;DHT22;21190;58.750;17.004;2023-02-15T15:20:50;2.10;99.90
34985;DHT22;21190;58.750;17.004;2023-02-15T15:25:50;2.10;99.90
34985;DHT22;21190;58.750;17.004;2023-02-15T15:31:14;2.10;99.90
34985;DHT22;21190;58.750;17.004;2023-02-15T15:40:23;2.20;99.90
34985;DHT22;21190;58.750;17.004;2023-02-15T15:48:47;2.10;99.90
34985;DHT22;21190;58.750;17.004;2023-02-15T15:51:20;2.10;99.90
34985;DHT22;21190;58.750;17.004;2023-02-15T15:53:49;2.10;99.90
34985;DHT22;21190;58.750;17.004;2023-02-15T15:56:23;2.10;99.90
34985;DHT22;21190;58.750;17.004;2023-02-15T15:58:55;2.00;99.90
34985;DHT22;21190;58.750;17.004;2023-02-15T16:01:34;2.00;99.90
34985;DHT22;21190;58.750;17.004;2023-02-15T16:04:01;1.90;99.90
34985;DHT22;21190;58.750;17.004;2023-02-15T16:06:35;1.90;99.90
34985;DHT22;21190;58.750;17.004;2023-02-15T16:09:26;1.90;99.90
34985;DHT22;21190;58.750;17.004;2023-02-15T16:11:57;1.90;99.90
34985;DHT22;21190;58.750;17.004;2023-02-15T16:14:29;1.90;99.90
34985;DHT22;21190;58.750;17.004;2023-02-15T16:16:59;1.90;99.90
34985;DHT22;21190;58.750;17.004;2023-02-15T16:19:38;1.90;99.90
34985;DHT22;21190;58.750;17.004;2023-02-15T16:22:16;1.90;99.90
34985;DHT22;21190;58.750;17.004;2023-02-15T16:25:07;1.90;99.90
34985;DHT22;21190;58.750;17.004;2023-02-15T16:27:42;1.90;99.90
34985;DHT22;21190;58.750;17.004;2023-02-15T16:30:23;1.90;99.90
34985;DHT22;21190;58.750;17.004;2023-02-15T16:33:11;1.90;99.90
34985;DHT22;21190;58.750;17.004;2023-02-15T16:38:38;1.80;99.90
34985;DHT22;21190;58.750;17.004;2023-02-15T16:41:24;1.80;99.90
34985;DHT22;21190;58.750;17.004;2023-02-15T16:43:53;1.80;99.90
34985;DHT22;21190;58.750;17.004;2023-02-15T16:46:32;1.70;99.90
34985;DHT22;21190;58.750;17.004;2023-02-15T16:49:19;1.70;99.90
34985;DHT22;21190;58.750;17.004;2023-02-15T16:52:03;1.80;99.90
34985;DHT22;21190;58.750;17.004;2023-02-15T16:54:35;1.80;99.90
34985;DHT22;21190;58.750;17.004;2023-02-15T16:57:03;1.70;99.90
34985;DHT22;21190;58.750;17.004;2023-02-15T17:02:02;1.70;99.90
34985;DHT22;21190;58.750;17.004;2023-02-15T17:04:31;1.80;99.90
34985;DHT22;21190;58.750;17.004;2023-02-15T17:09:59;1.80;99.90
34985;DHT22;21190;58.750;17.004;2023-02-15T17:12:46;1.80;99.90
34985;DHT22;21190;58.750;17.004;2023-02-15T17:15:34;1.70;99.90
34985;DHT22;21190;58.750;17.004;2023-02-15T17:20:33;1.70;99.90
34985;DHT22;21190;58.750;17.004;2023-02-15T17:23:03;1.70;99.90
34985;DHT22;21190;58.750;17.004;2023-02-15T17:25:37;1.70;99.90
34985;DHT22;21190;58.750;17.004;2023-02-15T17:28:16;1.70;99.90
34985;DHT22;21190;58.750;17.004;2023-02-15T17:30:44;1.70;99.90
34985;DHT22;21190;58.750;17.004;2023-02-15T17:38:32;1.70;99.90
34985;DHT22;21190;58.750;17.004;2023-02-15T17:40:59;1.70;99.90
34985;DHT22;21190;58.750;17.004;2023-02-15T17:43:27;1.70;99.90
34985;DHT22;21190;58.750;17.004;2023-02-15T17:45:54;1.70;99.90
34985;DHT22;21190;58.750;17.004;2023-02-15T17:48:41;1.80;99.90
34985;DHT22;21190;58.750;17.004;2023-02-15T17:51:12;1.80;99.90
34985;DHT22;21190;58.750;17.004;2023-02-15T17:53:39;1.80;99.90
34985;DHT22;21190;58.750;17.004;2023-02-15T17:56:07;1.70;99.90
34985;DHT22;21190;58.750;17.004;2023-02-15T17:58:39;1.70;99.90
34985;DHT22;21190;58.750;17.004;2023-02-15T18:01:13;1.70;99.90
34985;DHT22;21190;58.750;17.004;2023-02-15T18:04:01;1.80;99.90
34985;DHT22;21190;58.750;17.004;2023-02-15T18:06:46;1.70;99.90
34985;DHT22;21190;58.750;17.004;2023-02-15T18:09:33;1.70;99.90
34985;DHT22;21190;58.750;17.004;2023-02-15T18:12:25;1.60;99.90
34985;DHT22;21190;58.750;17.004;2023-02-15T18:14:54;1.60;99.90
34985;DHT22;21190;58.750;17.004;2023-02-15T18:17:33;1.70;99.90
34985;DHT22;21190;58.750;17.004;2023-02-15T18:20:03;1.70;99.90
34985;DHT22;21190;58.750;17.004;2023-02-15T18:22:31;1.70;99.90
34985;DHT22;21190;58.750;17.004;2023-02-15T18:24:59;1.80;99.90
34985;DHT22;21190;58.750;17.004;2023-02-15T18:27:26;1.70;99.90
34985;DHT22;21190;58.750;17.004;2023-02-15T18:29:53;1.70;99.90
34985;DHT22;21190;58.750;17.004;2023-02-15T18:32:32;1.70;99.90
34985;DHT22;21190;58.750;17.004;2023-02-15T18:35:02;1.70;99.90
34985;DHT22;21190;58.750;17.004;2023-02-15T18:37:30;1.70;99.90
34985;DHT22;21190;58.750;17.004;2023-02-15T18:40:01;1.70;99.90
34985;DHT22;21190;58.750;17.004;2023-02-15T18:42:34;1.70;99.90
34985;DHT22;21190;58.750;17.004;2023-02-15T18:45:23;1.70;99.90
34985;DHT22;21190;58.750;17.004;2023-02-15T18:47:54;1.70;99.90
34985;DHT22;21190;58.750;17.004;2023-02-15T18:50:23;1.70;99.90
34985;DHT22;21190;58.750;17.004;2023-02-15T18:52:53;1.70;99.90
34985;DHT22;21190;58.750;17.004;2023-02-15T18:55:24;1.60;99.90
34985;DHT22;21190;58.750;17.004;2023-02-15T18:57:53;1.70;99.90
34985;DHT22;21190;58.750;17.004;2023-02-15T19:00:23;1.70;99.90
34985;DHT22;21190;58.750;17.004;2023-02-15T19:02:51;1.70;99.90
34985;DHT22;21190;58.750;17.004;2023-02-15T19:05:20;1.70;99.90
34985;DHT22;21190;58.750;17.004;2023-02-15T19:07:48;1.70;99.90
34985;DHT22;21190;58.750;17.004;2023-02-15T19:10:24;1.70;99.90